ETD42 EHAM-OMAA
Flight info
| Callsign | ETD42 |
|---|---|
| Flight time | N/A |
| Altitude | 37000 |
| Route | EDUPO Z739 MISGO DCT DOJOH DCT DODEN DCT NEGIX DCT DINKU DCT BESNI DCT GOMIG DCT BEDOX DCT LURID DCT DOBOT DCT YULHU DCT VABEK UL603 OLOTA DCT DISOR DCT MES UL609 RDS DCT VANZA DCT LAKTO L560 SILKA M872 BDB Y214 RAPMA DCT KUVSO DCT KATIT DCT DANUX DCT TANSU G783 VAVIM P899 ROVOS |
| Aircraft | A35K/H-SDE2E3GHIJ3J4J5LM1ORWXY/LB1D1 |
Departure
| Time | 2026-05-04 13:56 |
|---|---|
| Airport | Amsterdam Airport Schiphol (EHAM) |
Arrival
| Time | N/A |
|---|---|
| Airport | Zayed International Airport (OMAA) |
| Time | Latitude | Longitude | Altitude | Speed | Heading |
|---|---|---|---|---|---|
| 2026-05-04 13:43 | 52.31162 | 4.76791 | 6 ft | 0 kts | 303° |
| 2026-05-04 13:49 | 52.31155 | 4.76808 | 5 ft | 4 kts | 306° |
| 2026-05-04 13:49 | 52.31138 | 4.76842 | 7 ft | 4 kts | 315° |
| 2026-05-04 13:50 | 52.31118 | 4.76869 | 7 ft | 4 kts | 333° |
| 2026-05-04 13:50 | 52.31094 | 4.76879 | 6 ft | 4 kts | 20° |
| 2026-05-04 13:50 | 52.31089 | 4.76876 | 6 ft | 0 kts | 33° |
| 2026-05-04 13:52 | 52.31101 | 4.76888 | 6 ft | 5 kts | 31° |
| 2026-05-04 13:52 | 52.31157 | 4.76947 | 5 ft | 14 kts | 33° |
| 2026-05-04 13:53 | 52.31256 | 4.77055 | 5 ft | 20 kts | 33° |
| 2026-05-04 13:53 | 52.31293 | 4.77276 | 5 ft | 22 kts | 93° |
| 2026-05-04 13:53 | 52.31273 | 4.77483 | 5 ft | 14 kts | 136° |
| 2026-05-04 13:54 | 52.31001 | 4.77486 | 5 ft | 26 kts | 182° |
| 2026-05-04 13:54 | 52.30819 | 4.77470 | 5 ft | 22 kts | 184° |
| 2026-05-04 13:54 | 52.30536 | 4.77569 | 5 ft | 22 kts | 152° |
| 2026-05-04 13:55 | 52.30429 | 4.77618 | 5 ft | 14 kts | 208° |
| 2026-05-04 13:55 | 52.30078 | 4.76762 | 4 ft | 105 kts | 238° |
| 2026-05-04 13:55 | 52.29576 | 4.75457 | 8 ft | 163 kts | 238° |
| 2026-05-04 13:56 | 52.28943 | 4.73857 | 587 ft | 166 kts | 240° |
| 2026-05-04 13:56 | 52.28316 | 4.72259 | 1292 ft | 173 kts | 240° |
| 2026-05-04 13:56 | 52.26759 | 4.68663 | 2074 ft | 215 kts | 223° |
| 2026-05-04 13:57 | 52.25416 | 4.67519 | 2609 ft | 225 kts | 187° |
| 2026-05-04 13:57 | 52.23895 | 4.68032 | 3290 ft | 230 kts | 148° |
| 2026-05-04 13:58 | 52.21293 | 4.74872 | 4953 ft | 261 kts | 118° |
| 2026-05-04 13:58 | 52.19520 | 4.80187 | 6316 ft | 272 kts | 120° |
| 2026-05-04 13:58 | 52.18575 | 4.82887 | 7103 ft | 276 kts | 121° |
| 2026-05-04 13:59 | 52.17735 | 4.85708 | 7899 ft | 279 kts | 108° |
| 2026-05-04 13:59 | 52.17535 | 4.88844 | 8699 ft | 283 kts | 83° |
| 2026-05-04 13:59 | 52.18617 | 4.95109 | 10259 ft | 295 kts | 72° |
| 2026-05-04 14:00 | 52.19267 | 4.98412 | 10626 ft | 315 kts | 73° |
| 2026-05-04 14:00 | 52.20662 | 5.05680 | 11290 ft | 355 kts | 73° |
| 2026-05-04 14:00 | 52.21401 | 5.09589 | 11849 ft | 366 kts | 73° |
| 2026-05-04 14:01 | 52.22154 | 5.13590 | 12574 ft | 372 kts | 73° |
| 2026-05-04 14:01 | 52.22914 | 5.17652 | 13304 ft | 378 kts | 73° |
| 2026-05-04 14:01 | 52.23393 | 5.26209 | 14628 ft | 387 kts | 103° |
| 2026-05-04 14:02 | 52.22421 | 5.30276 | 15298 ft | 387 kts | 122° |
| 2026-05-04 14:02 | 52.20927 | 5.33944 | 15994 ft | 390 kts | 127° |
| 2026-05-04 14:02 | 52.19335 | 5.37545 | 16642 ft | 393 kts | 127° |
| 2026-05-04 14:02 | 52.17726 | 5.41177 | 17280 ft | 397 kts | 127° |
| 2026-05-04 14:03 | 52.16108 | 5.44851 | 17905 ft | 401 kts | 127° |
| 2026-05-04 14:03 | 52.14480 | 5.48560 | 18581 ft | 402 kts | 127° |
| 2026-05-04 14:03 | 52.12850 | 5.52282 | 19188 ft | 405 kts | 127° |
| 2026-05-04 14:03 | 52.11212 | 5.56019 | 19777 ft | 408 kts | 127° |
| 2026-05-04 14:04 | 52.07886 | 5.63604 | 20936 ft | 415 kts | 128° |
| 2026-05-04 14:04 | 52.06174 | 5.67395 | 21486 ft | 416 kts | 131° |
| 2026-05-04 14:04 | 52.04317 | 5.71018 | 21804 ft | 418 kts | 134° |
| 2026-05-04 14:05 | 52.00480 | 5.78159 | 22376 ft | 422 kts | 134° |
| 2026-05-04 14:05 | 51.98548 | 5.81746 | 22665 ft | 423 kts | 134° |
| 2026-05-04 14:05 | 51.96610 | 5.85348 | 22943 ft | 425 kts | 134° |
| 2026-05-04 14:06 | 51.94664 | 5.88975 | 23154 ft | 427 kts | 134° |
| 2026-05-04 14:06 | 51.92708 | 5.92621 | 23413 ft | 429 kts | 134° |
| 2026-05-04 14:06 | 51.90748 | 5.96275 | 23654 ft | 431 kts | 134° |
| 2026-05-04 14:06 | 51.88778 | 5.99943 | 23890 ft | 431 kts | 135° |
| 2026-05-04 14:07 | 51.86812 | 6.03599 | 24214 ft | 431 kts | 135° |
| 2026-05-04 14:07 | 51.84840 | 6.07262 | 24468 ft | 432 kts | 135° |
| 2026-05-04 14:07 | 51.82863 | 6.10920 | 24682 ft | 433 kts | 135° |
| 2026-05-04 14:07 | 51.80868 | 6.14581 | 24914 ft | 434 kts | 135° |
| 2026-05-04 14:08 | 51.78865 | 6.18244 | 25159 ft | 436 kts | 135° |
| 2026-05-04 14:08 | 51.76856 | 6.21913 | 25402 ft | 437 kts | 135° |
| 2026-05-04 14:08 | 51.74841 | 6.25598 | 25636 ft | 438 kts | 135° |
| 2026-05-04 14:08 | 51.72846 | 6.29235 | 25863 ft | 439 kts | 136° |
| 2026-05-04 14:09 | 51.68763 | 6.36660 | 26377 ft | 441 kts | 136° |
| 2026-05-04 14:09 | 51.66718 | 6.40368 | 26748 ft | 444 kts | 136° |
| 2026-05-04 14:10 | 51.62591 | 6.47843 | 27816 ft | 449 kts | 136° |
| 2026-05-04 14:10 | 51.60520 | 6.51597 | 28439 ft | 449 kts | 137° |